Time;durP1;ratioP1;P1;durP2;ratioP2;P2;SDS_P1;SDS_P2;PMS_P1;PMS_P2;Temp;Humidity;BMP_temperature;BMP_pressure;BME280_temperature;BME280_humidity;BME280_pressure;Samples;Min_cycle;Max_cycle;Signal;HPM_P1;HPM_P2
2022/10/05 00:02:26;;;;;;;3.70;3.37;;;11.20;99.90;;;;;;6846936;23;20811;-56
2022/10/05 00:05:31;;;;;;;4.10;3.73;;;11.10;99.90;;;;;;6264103;28;20516;-56
2022/10/05 00:08:35;;;;;;;4.50;3.83;;;11.10;99.90;;;;;;6261482;28;20914;-56
2022/10/05 00:11:38;;;;;;;3.47;3.10;;;11.10;99.90;;;;;;6257139;28;20470;-56
2022/10/05 00:14:41;;;;;;;4.60;3.60;;;11.10;99.90;;;;;;6250922;28;20482;-56
2022/10/05 00:17:46;;;;;;;6.03;3.80;;;11.20;99.90;;;;;;6251273;28;20955;-56
2022/10/05 00:20:49;;;;;;;5.20;4.40;;;11.10;99.90;;;;;;6250787;28;20475;-56
2022/10/05 00:23:56;;;;;;;5.17;4.67;;;11.10;99.90;;;;;;6250045;28;20482;-56
2022/10/05 00:27:00;;;;;;;8.80;5.00;;;11.10;99.90;;;;;;6250127;28;21002;-56
2022/10/05 00:30:13;;;;;;;6.20;4.40;;;11.10;99.90;;;;;;6250060;28;20478;-56
2022/10/05 00:33:18;;;;;;;5.73;3.90;;;11.00;99.90;;;;;;6251361;28;20487;-56
2022/10/05 00:36:21;;;;;;;3.80;3.37;;;10.90;99.90;;;;;;6252455;28;20474;-56
2022/10/05 00:39:24;;;;;;;4.23;2.60;;;11.00;99.90;;;;;;6252832;28;20443;-56
2022/10/05 00:42:42;;;;;;;5.60;3.67;;;11.00;99.90;;;;;;6251757;28;20959;-57
2022/10/05 00:45:50;;;;;;;3.30;2.47;;;11.00;99.90;;;;;;6251900;28;20545;-56
2022/10/05 00:49:03;;;;;;;4.10;3.23;;;11.00;99.90;;;;;;6251741;28;20570;-56
2022/10/05 00:52:19;;;;;;;7.20;6.60;;;11.00;99.90;;;;;;6251581;28;20826;-58
2022/10/05 00:55:33;;;;;;;5.73;5.20;;;10.90;99.90;;;;;;6251908;28;20477;-57
2022/10/05 00:58:52;;;;;;;3.80;3.50;;;10.90;99.90;;;;;;6251606;28;20498;-57
2022/10/05 01:01:59;;;;;;;4.70;3.80;;;10.90;99.90;;;;;;6250925;28;20568;-57
2022/10/05 01:05:12;;;;;;;4.80;4.33;;;10.80;99.90;;;;;;6251242;28;20990;-57
2022/10/05 01:08:27;;;;;;;5.20;3.87;;;10.80;99.90;;;;;;6253621;28;20990;-58
2022/10/05 01:11:40;;;;;;;15.63;11.80;;;10.80;99.90;;;;;;6253752;28;20475;-57
2022/10/05 01:14:52;;;;;;;8.33;5.00;;;10.80;99.90;;;;;;6251333;28;20472;-57
2022/10/05 01:18:02;;;;;;;4.97;4.47;;;10.80;99.90;;;;;;6251223;28;20482;-58
2022/10/05 01:21:15;;;;;;;5.07;3.63;;;10.80;99.90;;;;;;6251024;28;20479;-57
2022/10/05 01:24:57;;;;;;;4.37;3.80;;;10.80;99.90;;;;;;6251226;28;20492;-57
2022/10/05 01:28:05;;;;;;;14.43;11.20;;;10.70;99.90;;;;;;6251156;28;20530;-57
2022/10/05 01:31:16;;;;;;;13.33;10.60;;;10.70;99.90;;;;;;6251458;28;20490;-57
2022/10/05 01:34:26;;;;;;;12.90;8.60;;;10.70;99.90;;;;;;6250517;28;20565;-57
2022/10/05 01:37:39;;;;;;;4.03;3.47;;;10.70;99.90;;;;;;6250791;28;20483;-57
2022/10/05 01:40:51;;;;;;;4.03;3.60;;;10.60;99.90;;;;;;6251062;28;20498;-57
2022/10/05 01:44:01;;;;;;;4.50;3.07;;;10.60;99.90;;;;;;6251088;28;20532;-57
2022/10/05 01:47:10;;;;;;;4.13;2.80;;;10.60;99.90;;;;;;6250688;28;20998;-57
2022/10/05 01:50:23;;;;;;;5.50;2.97;;;10.60;99.90;;;;;;6250765;28;20490;-59
2022/10/05 01:53:39;;;;;;;5.93;3.13;;;10.60;99.90;;;;;;6250568;28;20483;-57
2022/10/05 01:56:56;;;;;;;7.63;3.80;;;10.60;99.90;;;;;;6250347;28;20565;-57
2022/10/05 02:00:06;;;;;;;5.37;3.30;;;10.60;99.90;;;;;;6250035;28;20471;-57
2022/10/05 02:03:16;;;;;;;2.93;2.63;;;10.50;99.90;;;;;;6250073;28;20494;-58
2022/10/05 02:06:23;;;;;;;5.10;3.03;;;10.40;99.90;;;;;;6250058;28;20451;-58
2022/10/05 02:09:29;;;;;;;3.43;3.03;;;10.30;99.90;;;;;;6249987;28;20423;-58
2022/10/05 02:12:36;;;;;;;4.10;2.83;;;10.30;99.90;;;;;;6250338;28;20460;-58
2022/10/05 02:15:44;;;;;;;3.77;3.37;;;10.30;99.90;;;;;;6250019;28;20842;-59
2022/10/05 02:18:51;;;;;;;3.93;3.40;;;10.30;99.90;;;;;;6249821;28;20483;-58
2022/10/05 02:21:59;;;;;;;4.00;2.77;;;10.30;99.90;;;;;;6249669;28;20549;-57
2022/10/05 02:25:07;;;;;;;4.27;3.30;;;10.30;99.90;;;;;;6249908;28;20495;-57
2022/10/05 02:28:14;;;;;;;11.10;3.70;;;10.30;99.90;;;;;;6249661;28;20610;-57
2022/10/05 02:31:22;;;;;;;3.97;3.40;;;10.30;99.90;;;;;;6249629;28;21018;-57
2022/10/05 02:34:28;;;;;;;4.30;3.50;;;10.30;99.90;;;;;;6249642;28;20490;-56
2022/10/05 02:37:40;;;;;;;3.80;3.20;;;10.30;99.90;;;;;;6249876;28;20475;-58
2022/10/05 02:40:52;;;;;;;4.17;3.77;;;10.30;99.90;;;;;;6249340;28;20478;-57
2022/10/05 02:44:03;;;;;;;6.00;3.40;;;10.30;99.90;;;;;;6249203;28;20479;-57
2022/10/05 02:47:16;;;;;;;4.10;3.70;;;10.20;99.90;;;;;;6249321;28;20479;-57
2022/10/05 02:50:27;;;;;;;3.97;3.60;;;10.20;99.90;;;;;;6249112;28;20479;-58
2022/10/05 02:53:39;;;;;;;7.00;3.90;;;10.20;99.90;;;;;;6249058;28;20566;-57
2022/10/05 02:56:52;;;;;;;4.43;3.07;;;10.20;99.90;;;;;;6250358;28;20471;-58
2022/10/05 03:00:02;;;;;;;3.83;3.30;;;10.10;99.90;;;;;;6250301;28;20467;-58
2022/10/05 03:03:14;;;;;;;4.10;3.00;;;10.00;99.90;;;;;;6248727;28;20805;-57
2022/10/05 03:06:23;;;;;;;3.90;3.43;;;10.00;99.90;;;;;;6225668;28;20949;-58
2022/10/05 03:09:31;;;;;;;3.70;3.40;;;10.00;99.90;;;;;;6224808;28;20456;-58
2022/10/05 03:12:46;;;;;;;7.00;3.57;;;10.00;99.90;;;;;;6224806;28;20483;-57
2022/10/05 03:16:04;;;;;;;4.90;2.93;;;10.00;99.90;;;;;;6224505;28;20461;-57
2022/10/05 03:19:22;;;;;;;4.00;3.53;;;9.90;99.90;;;;;;6224889;28;20464;-57
2022/10/05 03:22:46;;;;;;;4.60;2.97;;;10.00;99.90;;;;;;6225333;28;21005;-57
2022/10/05 03:26:08;;;;;;;4.30;3.03;;;10.00;99.90;;;;;;6229450;28;20569;-57
2022/10/05 03:29:25;;;;;;;4.67;3.80;;;10.00;99.90;;;;;;6229533;28;20487;-57
2022/10/05 03:32:40;;;;;;;5.87;5.10;;;10.00;99.90;;;;;;6229080;28;20938;-59
2022/10/05 03:35:53;;;;;;;7.60;6.67;;;9.90;99.90;;;;;;6229067;28;20468;-56
2022/10/05 03:39:03;;;;;;;7.30;6.70;;;9.90;99.90;;;;;;6229079;28;20476;-58
2022/10/05 03:42:12;;;;;;;6.43;5.83;;;9.90;99.90;;;;;;6228581;28;20542;-56
2022/10/05 03:45:23;;;;;;;5.80;5.20;;;9.90;99.90;;;;;;6228939;28;20814;-57
2022/10/05 03:48:32;;;;;;;4.17;3.83;;;9.90;99.90;;;;;;6228955;28;20444;-58
2022/10/05 03:51:40;;;;;;;4.53;4.13;;;9.80;99.90;;;;;;6229065;28;20472;-57
2022/10/05 03:54:47;;;;;;;4.20;3.60;;;9.80;99.90;;;;;;6228653;28;20463;-57
2022/10/05 03:57:53;;;;;;;3.30;3.00;;;9.70;99.90;;;;;;6228850;28;20479;-57
2022/10/05 04:01:01;;;;;;;3.30;2.77;;;9.80;99.90;;;;;;6228864;28;20475;-56
2022/10/05 04:04:10;;;;;;;4.17;3.07;;;9.80;99.90;;;;;;6228472;28;20530;-57
2022/10/05 04:07:34;;;;;;;7.53;3.40;;;9.80;99.90;;;;;;6228672;28;20769;-57
2022/10/05 04:10:44;;;;;;;5.03;3.07;;;9.70;99.90;;;;;;6228463;28;20538;-57
2022/10/05 04:13:52;;;;;;;3.43;3.10;;;9.70;99.90;;;;;;6228677;28;20479;-58
2022/10/05 04:16:59;;;;;;;3.40;3.10;;;9.60;99.90;;;;;;6228116;28;20518;-58
2022/10/05 04:20:06;;;;;;;3.70;3.30;;;9.60;99.90;;;;;;6228058;28;20550;-58
2022/10/05 04:23:18;;;;;;;4.17;3.47;;;9.60;99.90;;;;;;6228016;28;20537;-58
2022/10/05 04:26:30;;;;;;;4.93;3.67;;;9.60;99.90;;;;;;6228069;28;20468;-57
2022/10/05 04:29:38;;;;;;;8.70;7.90;;;9.60;99.90;;;;;;6227904;28;20542;-60
2022/10/05 04:32:43;;;;;;;10.63;9.73;;;9.60;99.90;;;;;;6227306;28;20476;-58
2022/10/05 04:36:02;;;;;;;8.70;7.50;;;9.50;99.90;;;;;;6227717;28;20480;-59
2022/10/05 04:39:17;;;;;;;6.73;5.53;;;9.50;99.90;;;;;;6227548;28;20489;-58
2022/10/05 04:42:29;;;;;;;4.40;4.10;;;9.60;99.90;;;;;;6227543;28;20472;-57
2022/10/05 04:45:45;;;;;;;4.67;3.70;;;9.50;99.90;;;;;;6228783;28;20534;-57
2022/10/05 04:49:06;;;;;;;3.93;3.40;;;9.60;99.90;;;;;;6227959;28;20468;-57
2022/10/05 04:52:16;;;;;;;5.60;3.23;;;9.60;99.90;;;;;;6227367;28;20838;-57
2022/10/05 04:55:30;;;;;;;3.40;3.10;;;9.60;99.90;;;;;;6227323;28;20495;-57
2022/10/05 04:58:52;;;;;;;6.63;3.43;;;9.60;99.90;;;;;;6227153;28;20577;-57
2022/10/05 05:02:05;;;;;;;4.87;3.57;;;9.60;99.90;;;;;;6226650;28;20488;-57
2022/10/05 05:05:27;;;;;;;3.80;3.10;;;9.50;99.90;;;;;;6226994;28;20495;-57
2022/10/05 05:08:44;;;;;;;4.13;3.73;;;9.50;99.90;;;;;;6227312;28;20472;-58
2022/10/05 05:12:03;;;;;;;4.17;3.87;;;9.50;99.90;;;;;;6227028;28;20889;-58
2022/10/05 05:15:18;;;;;;;7.00;4.87;;;9.50;99.90;;;;;;6226772;28;20488;-58
2022/10/05 05:18:46;;;;;;;5.30;4.53;;;9.50;99.90;;;;;;6226453;28;20910;-58
2022/10/05 05:22:00;;;;;;;6.70;4.60;;;9.50;99.90;;;;;;6226903;28;20479;-58
2022/10/05 05:25:19;;;;;;;4.57;3.73;;;9.50;99.90;;;;;;6227243;28;20497;-58
2022/10/05 05:28:29;;;;;;;5.70;3.50;;;9.60;99.90;;;;;;6226701;28;20472;-58
2022/10/05 05:31:45;;;;;;;5.27;3.97;;;9.60;99.90;;;;;;6226646;28;20491;-58
2022/10/05 05:35:06;;;;;;;4.43;4.03;;;9.70;99.90;;;;;;6226476;28;20476;-58
2022/10/05 05:38:25;;;;;;;8.27;4.13;;;9.70;99.90;;;;;;6226809;28;20511;-58
2022/10/05 05:41:35;;;;;;;3.97;3.67;;;9.70;99.90;;;;;;6226374;28;20534;-59
2022/10/05 05:44:46;;;;;;;3.87;3.47;;;9.70;99.90;;;;;;6225458;28;20487;-59
2022/10/05 05:47:53;;;;;;;6.50;3.97;;;9.80;99.90;;;;;;6226233;28;20820;-59
2022/10/05 05:51:01;;;;;;;3.77;3.47;;;9.80;99.90;;;;;;6226059;28;20479;-59
2022/10/05 05:54:20;;;;;;;4.80;3.60;;;9.90;99.90;;;;;;6224531;28;20965;-59
2022/10/05 05:57:28;;;;;;;6.00;4.90;;;9.90;99.90;;;;;;6224891;28;20456;-58
2022/10/05 06:00:38;;;;;;;7.07;5.60;;;10.00;99.90;;;;;;6226085;28;20764;-58
2022/10/05 06:03:46;;;;;;;6.17;5.57;;;10.00;99.90;;;;;;6244864;28;20480;-58
2022/10/05 06:06:52;;;;;;;7.10;5.30;;;10.00;99.90;;;;;;6250035;28;20486;-58
2022/10/05 06:10:03;;;;;;;9.90;5.13;;;10.00;99.90;;;;;;6249457;28;20475;-58
2022/10/05 06:13:11;;;;;;;5.90;4.90;;;10.00;99.90;;;;;;6249223;28;21018;-58
2022/10/05 06:16:22;;;;;;;5.63;5.10;;;10.10;99.90;;;;;;6250282;28;20484;-58
2022/10/05 06:19:27;;;;;;;6.73;4.70;;;10.10;99.90;;;;;;6250238;28;20476;-58
2022/10/05 06:22:35;;;;;;;9.17;6.17;;;10.20;99.90;;;;;;6249730;28;20483;-58
2022/10/05 06:25:51;;;;;;;7.83;5.50;;;10.20;99.90;;;;;;6249871;28;20490;-58
2022/10/05 06:29:00;;;;;;;5.37;4.97;;;10.30;99.90;;;;;;6249607;28;20545;-57
2022/10/05 06:32:13;;;;;;;6.57;5.57;;;10.40;99.90;;;;;;6249557;28;20475;-58
2022/10/05 06:35:29;;;;;;;8.80;4.77;;;10.50;99.90;;;;;;6251626;28;20972;-57
2022/10/05 06:39:01;;;;;;;6.57;5.40;;;10.60;99.90;;;;;;6249830;28;20474;-58
2022/10/05 06:42:18;;;;;;;6.20;5.60;;;10.70;99.90;;;;;;6248896;28;20549;-58
2022/10/05 06:45:30;;;;;;;7.20;5.23;;;10.80;99.90;;;;;;6247214;28;20940;-58
2022/10/05 06:48:47;;;;;;;10.80;5.63;;;10.80;99.90;;;;;;6249838;28;20506;-58
2022/10/05 06:51:57;;;;;;;9.77;7.23;;;10.90;99.90;;;;;;6249616;28;20492;-58
2022/10/05 06:55:13;;;;;;;8.40;7.23;;;11.00;99.90;;;;;;6250971;28;20525;-58
2022/10/05 06:58:33;;;;;;;12.60;6.97;;;11.10;99.90;;;;;;6250086;28;20486;-57
2022/10/05 07:01:48;;;;;;;11.40;7.13;;;11.20;99.90;;;;;;6249848;28;20984;-58
2022/10/05 07:05:32;;;;;;;11.53;6.93;;;11.20;99.90;;;;;;6249426;28;20482;-58
2022/10/05 07:08:54;;;;;;;15.03;8.70;;;11.20;99.90;;;;;;6242150;28;20463;-57
2022/10/05 07:12:12;;;;;;;11.50;9.13;;;11.30;99.90;;;;;;6248352;28;20853;-58
2022/10/05 07:15:35;;;;;;;9.43;7.37;;;11.60;99.90;;;;;;6248918;28;20463;-57
2022/10/05 07:18:52;;;;;;;13.47;7.40;;;11.80;99.90;;;;;;6249847;28;20439;-58
2022/10/05 07:22:14;;;;;;;7.70;6.90;;;12.00;99.90;;;;;;6250133;28;20475;-57
2022/10/05 07:25:22;;;;;;;8.93;7.37;;;12.20;99.90;;;;;;6248509;28;20548;-57
2022/10/05 07:28:36;;;;;;;15.13;8.63;;;12.40;99.90;;;;;;6248720;28;20472;-58
2022/10/05 07:31:46;;;;;;;8.07;7.17;;;13.60;99.90;;;;;;6247950;28;20485;-58
2022/10/05 07:34:58;;;;;;;12.03;6.90;;;17.40;99.90;;;;;;6242888;28;20467;-58
2022/10/05 07:38:09;;;;;;;13.07;7.77;;;21.30;93.70;;;;;;6248444;28;20486;-58
2022/10/05 07:41:19;;;;;;;8.60;7.60;;;24.10;76.30;;;;;;6244618;28;20236;-59
2022/10/05 07:44:29;;;;;;;10.17;8.17;;;26.40;63.50;;;;;;6244051;28;20228;-59
2022/10/05 07:47:39;;;;;;;10.30;8.00;;;27.70;54.30;;;;;;6233541;28;20239;-59
2022/10/05 07:50:52;;;;;;;10.23;8.17;;;26.70;52.40;;;;;;6248294;28;20247;-58
2022/10/05 07:54:10;;;;;;;12.10;8.50;;;27.40;51.60;;;;;;6248248;28;20234;-57
2022/10/05 07:57:20;;;;;;;9.63;7.47;;;29.50;47.00;;;;;;6248485;28;20228;-59
2022/10/05 08:00:27;;;;;;;9.00;7.40;;;31.40;42.00;;;;;;6249041;28;20216;-58
2022/10/05 08:03:39;;;;;;;8.65;7.95;;;33.00;38.40;;;;;;6248672;28;20251;-58
2022/10/05 08:06:50;;;;;;;9.27;6.97;;;34.20;35.20;;;;;;6248185;28;20239;-59
2022/10/05 08:10:00;;;;;;;12.30;9.02;;;35.00;32.90;;;;;;6252118;28;20235;-59
2022/10/05 08:13:13;;;;;;;10.55;8.38;;;35.70;31.50;;;;;;6252374;28;20542;-59
2022/10/05 08:16:18;;;;;;;10.80;8.45;;;36.40;29.90;;;;;;6252802;28;20223;-59
2022/10/05 08:19:26;;;;;;;10.70;8.80;;;36.60;29.30;;;;;;6248446;28;20243;-63
2022/10/05 08:22:34;;;;;;;9.68;8.70;;;37.30;28.00;;;;;;6241377;28;20663;-64
2022/10/05 08:25:46;;;;;;;9.45;8.43;;;37.90;27.40;;;;;;6252477;28;20301;-62
2022/10/05 08:28:59;;;;;;;11.27;8.68;;;39.10;26.40;;;;;;6228361;28;20548;-63
2022/10/05 08:32:05;;;;;;;11.95;9.02;;;40.10;25.10;;;;;;6228060;28;20244;-63
2022/10/05 08:35:24;;;;;;;10.00;8.68;;;40.60;24.30;;;;;;6239197;28;20688;-61
2022/10/05 08:38:32;;;;;;;15.18;9.75;;;38.80;25.00;;;;;;6246471;28;20225;-60
2022/10/05 08:42:31;;;;;;;11.43;9.45;;;39.90;24.80;;;;;;6237937;28;20249;-60
2022/10/05 08:46:06;;;;;;;9.60;8.32;;;40.80;24.10;;;;;;6251751;28;20282;-60
2022/10/05 08:49:32;;;;;;;10.30;9.02;;;42.40;22.60;;;;;;6252138;28;20282;-59
2022/10/05 08:52:56;;;;;;;14.05;8.48;;;43.10;22.10;;;;;;6252054;28;20234;-60
2022/10/05 08:56:22;;;;;;;11.07;8.23;;;44.10;21.30;;;;;;6252185;28;20258;-61
2022/10/05 09:00:03;;;;;;;9.05;7.78;;;44.70;20.30;;;;;;6251762;28;20227;-61
2022/10/05 09:03:29;;;;;;;8.10;7.22;;;44.40;20.20;;;;;;6248619;28;20254;-60
2022/10/05 09:07:18;;;;;;;7.72;7.03;;;45.30;19.70;;;;;;6251410;28;20263;-59
2022/10/05 09:11:10;;;;;;;9.38;6.93;;;45.90;19.10;;;;;;6245001;28;20233;-60
2022/10/05 09:14:28;;;;;;;9.70;6.95;;;46.50;18.90;;;;;;6176205;28;20238;-61
2022/10/05 09:18:06;;;;;;;7.65;6.90;;;46.50;18.50;;;;;;6251329;28;20239;-60
2022/10/05 09:21:16;;;;;;;10.27;6.97;;;46.60;18.20;;;;;;6251317;28;20238;-60
2022/10/05 09:24:27;;;;;;;6.55;6.05;;;47.70;17.60;;;;;;6215197;28;20239;-61
2022/10/05 09:27:36;;;;;;;7.50;6.90;;;47.80;17.50;;;;;;6222314;28;20231;-61
2022/10/05 09:31:07;;;;;;;7.60;6.30;;;47.40;17.80;;;;;;6220383;28;20775;-61
2022/10/05 09:34:46;;;;;;;6.80;6.20;;;48.00;17.80;;;;;;6201893;28;20304;-60
2022/10/05 09:38:14;;;;;;;8.18;5.43;;;47.50;17.50;;;;;;6203621;28;20240;-60
2022/10/05 09:41:58;;;;;;;7.07;6.30;;;48.10;17.10;;;;;;6223642;28;20231;-60
2022/10/05 09:45:30;;;;;;;8.23;5.10;;;48.10;16.90;;;;;;6151346;28;20273;-60
2022/10/05 09:49:06;;;;;;;6.93;6.20;;;47.60;17.00;;;;;;6156054;28;20236;-61
2022/10/05 09:52:32;;;;;;;6.03;5.45;;;45.50;18.50;;;;;;6226272;28;20236;-59
2022/10/05 09:56:04;;;;;;;5.47;4.97;;;46.70;17.70;;;;;;6226185;28;20236;-61
2022/10/05 09:59:37;;;;;;;5.55;4.47;;;47.50;17.40;;;;;;6201298;28;20682;-62
2022/10/05 10:03:07;;;;;;;5.22;4.75;;;47.80;16.40;;;;;;6201102;28;20252;-60
2022/10/05 10:06:29;;;;;;;5.63;5.22;;;48.30;16.30;;;;;;6201149;28;20241;-61
2022/10/05 10:09:45;;;;;;;6.28;4.78;;;48.90;16.10;;;;;;6228119;28;20607;-60
2022/10/05 10:13:03;;;;;;;4.80;4.47;;;49.30;16.00;;;;;;6249865;28;20233;-60
2022/10/05 10:16:23;;;;;;;5.05;4.55;;;50.20;16.20;;;;;;6249218;28;20530;-58
2022/10/05 10:20:13;;;;;;;4.10;3.80;;;49.40;15.70;;;;;;6248716;28;20301;-59
2022/10/05 10:23:28;;;;;;;4.95;4.25;;;49.40;15.30;;;;;;6228958;28;20246;-61
2022/10/05 10:27:15;;;;;;;5.15;4.75;;;48.90;16.00;;;;;;6249452;28;20286;-60
2022/10/05 10:30:41;;;;;;;5.13;4.65;;;49.00;15.80;;;;;;6246541;28;20235;-58
2022/10/05 10:34:08;;;;;;;5.30;4.40;;;49.60;15.40;;;;;;6246548;28;20307;-59
2022/10/05 10:37:32;;;;;;;4.47;4.03;;;49.10;15.20;;;;;;6249255;28;20246;-60
2022/10/05 10:40:39;;;;;;;4.03;3.67;;;47.80;15.60;;;;;;6249338;28;20239;-60
2022/10/05 10:44:02;;;;;;;5.60;3.85;;;48.20;15.80;;;;;;6249666;28;20243;-59
2022/10/05 10:47:40;;;;;;;4.97;4.47;;;48.40;15.40;;;;;;6249194;28;20293;-59
2022/10/05 10:51:06;;;;;;;5.10;4.15;;;48.20;16.00;;;;;;6249282;28;20246;-59
2022/10/05 10:54:54;;;;;;;4.68;4.28;;;47.50;16.10;;;;;;6249156;28;20626;-59
2022/10/05 10:58:36;;;;;;;5.20;4.80;;;45.20;17.60;;;;;;6173724;28;20247;-59
2022/10/05 11:01:50;;;;;;;4.65;4.10;;;44.60;17.80;;;;;;6171740;28;20288;-61
2022/10/05 11:05:21;;;;;;;4.65;4.25;;;44.80;17.60;;;;;;6248905;28;20385;-61
2022/10/05 11:08:57;;;;;;;5.18;4.22;;;44.40;17.70;;;;;;6248711;28;20563;-59
2022/10/05 11:12:31;;;;;;;4.47;4.07;;;45.10;17.70;;;;;;6244160;28;20261;-58
2022/10/05 11:15:55;;;;;;;6.97;4.35;;;45.80;17.40;;;;;;6248796;28;20220;-59
2022/10/05 11:19:20;;;;;;;5.00;4.53;;;45.90;17.30;;;;;;6248822;28;20250;-59
2022/10/05 11:22:57;;;;;;;5.35;3.88;;;46.10;16.80;;;;;;6249313;28;20235;-60
2022/10/05 11:26:24;;;;;;;4.35;3.85;;;44.80;18.00;;;;;;6248317;28;20609;-60
2022/10/05 11:30:01;;;;;;;4.53;3.65;;;45.20;17.60;;;;;;6249242;28;20231;-62
2022/10/05 11:33:42;;;;;;;6.07;4.32;;;45.30;17.60;;;;;;6199101;28;20315;-59
2022/10/05 11:37:11;;;;;;;5.88;5.05;;;45.20;17.60;;;;;;6199772;28;20631;-59
2022/10/05 11:40:41;;;;;;;4.25;3.83;;;45.80;17.30;;;;;;6241268;28;20227;-59
2022/10/05 11:44:04;;;;;;;4.45;4.05;;;45.40;17.30;;;;;;6248447;28;20227;-59
2022/10/05 11:47:17;;;;;;;5.75;4.18;;;44.20;17.80;;;;;;6251691;28;20225;-60
2022/10/05 11:50:25;;;;;;;4.25;3.20;;;44.10;18.00;;;;;;6253646;28;20245;-60
2022/10/05 11:53:37;;;;;;;4.40;4.00;;;44.00;17.90;;;;;;6253106;28;20246;-61
2022/10/05 11:56:44;;;;;;;5.72;4.05;;;42.80;18.80;;;;;;6253155;28;20797;-59
2022/10/05 11:59:58;;;;;;;7.88;5.13;;;41.30;19.70;;;;;;6253169;28;20236;-59
2022/10/05 12:03:33;;;;;;;4.55;4.10;;;40.30;20.40;;;;;;6252428;28;20678;-58
2022/10/05 12:06:54;;;;;;;4.80;4.35;;;39.70;21.10;;;;;;6253193;28;20250;-61
2022/10/05 12:10:15;;;;;;;4.43;3.97;;;38.50;21.90;;;;;;6252750;28;20229;-59
2022/10/05 12:13:27;;;;;;;5.07;4.40;;;37.40;23.00;;;;;;6253290;28;20558;-59
2022/10/05 12:16:37;;;;;;;4.55;4.15;;;36.40;24.10;;;;;;6254026;28;20883;-59
2022/10/05 12:19:45;;;;;;;3.97;3.53;;;35.70;24.70;;;;;;6253262;28;20240;-60
2022/10/05 12:22:54;;;;;;;5.70;4.65;;;35.30;25.10;;;;;;6252772;28;20258;-58
2022/10/05 12:26:04;;;;;;;5.25;4.75;;;34.40;26.00;;;;;;6248285;28;20226;-58
2022/10/05 12:29:13;;;;;;;4.57;4.10;;;33.30;27.10;;;;;;6252055;28;20228;-58
2022/10/05 12:32:21;;;;;;;5.25;4.75;;;32.20;28.40;;;;;;6248156;28;20570;-58
2022/10/05 12:35:30;;;;;;;5.60;5.05;;;31.20;29.50;;;;;;6251895;28;20778;-58
2022/10/05 12:38:54;;;;;;;4.30;3.90;;;30.70;30.20;;;;;;6251424;28;20220;-58
2022/10/05 12:42:08;;;;;;;9.33;4.80;;;30.10;31.20;;;;;;6247920;28;20235;-59
2022/10/05 12:45:23;;;;;;;4.68;4.10;;;29.90;31.90;;;;;;6246115;28;20247;-58
2022/10/05 12:49:00;;;;;;;5.15;4.25;;;29.90;32.00;;;;;;6252219;28;20227;-58
2022/10/05 12:52:06;;;;;;;5.28;4.03;;;29.90;32.50;;;;;;6236825;28;20231;-60
2022/10/05 12:55:19;;;;;;;4.50;4.10;;;31.20;30.90;;;;;;6253984;28;20227;-60
2022/10/05 12:58:37;;;;;;;4.45;4.15;;;32.80;29.10;;;;;;6254556;28;20576;-58
2022/10/05 13:01:45;;;;;;;5.63;3.38;;;33.20;28.30;;;;;;6244969;28;20259;-60
2022/10/05 13:04:56;;;;;;;4.80;4.10;;;34.30;27.50;;;;;;6251662;28;20251;-59
2022/10/05 13:08:17;;;;;;;4.85;3.90;;;35.20;26.70;;;;;;6251664;28;20222;-58
2022/10/05 13:11:27;;;;;;;5.72;3.72;;;34.80;26.50;;;;;;6251353;28;20264;-59
2022/10/05 13:14:52;;;;;;;4.13;3.83;;;34.30;27.20;;;;;;6252100;28;20240;-60
2022/10/05 13:18:10;;;;;;;5.72;4.05;;;33.20;28.10;;;;;;6231892;28;20228;-60
2022/10/05 13:21:19;;;;;;;5.05;3.40;;;32.20;29.00;;;;;;6218214;28;20294;-60
2022/10/05 13:24:25;;;;;;;4.82;4.00;;;31.40;29.90;;;;;;6249693;28;20219;-59
2022/10/05 13:27:31;;;;;;;4.65;4.25;;;30.90;30.80;;;;;;6202368;28;20221;-59
2022/10/05 13:30:38;;;;;;;7.83;4.80;;;29.80;32.80;;;;;;6202714;28;20190;-57
2022/10/05 13:34:01;;;;;;;4.87;4.37;;;28.50;34.90;;;;;;6202956;28;20225;-57
2022/10/05 13:37:12;;;;;;;4.20;3.90;;;27.40;36.60;;;;;;6206439;28;20244;-58
2022/10/05 13:40:21;;;;;;;4.77;3.97;;;26.50;38.80;;;;;;6243276;28;20731;-59
2022/10/05 13:43:37;;;;;;;4.70;4.30;;;25.80;41.20;;;;;;6251260;28;20251;-60
2022/10/05 13:46:47;;;;;;;5.63;4.40;;;25.30;43.40;;;;;;6251323;28;20293;-59
2022/10/05 13:49:57;;;;;;;7.50;4.97;;;24.90;44.70;;;;;;6251170;28;20705;-58
2022/10/05 13:53:07;;;;;;;5.33;4.67;;;24.30;45.80;;;;;;6250882;28;20606;-59
2022/10/05 13:56:19;;;;;;;4.50;4.20;;;24.20;46.30;;;;;;6251411;28;20243;-58
2022/10/05 13:59:30;;;;;;;4.20;3.70;;;24.10;46.90;;;;;;6251577;28;20244;-60
2022/10/05 14:02:40;;;;;;;5.03;4.50;;;24.10;46.90;;;;;;6250451;28;20248;-59
2022/10/05 14:05:55;;;;;;;6.30;5.40;;;24.10;47.20;;;;;;6241256;28;20232;-59
2022/10/05 14:08:58;;;;;;;5.70;4.30;;;23.50;48.10;;;;;;6250553;28;20681;-58
2022/10/05 14:12:19;;;;;;;7.17;4.87;;;23.50;48.60;;;;;;6242669;28;20235;-58
2022/10/05 14:15:29;;;;;;;4.83;4.43;;;23.60;48.80;;;;;;6246348;28;20600;-57
2022/10/05 14:18:37;;;;;;;6.50;3.93;;;23.40;49.10;;;;;;6250724;28;20228;-58
2022/10/05 14:21:49;;;;;;;5.43;4.60;;;23.00;49.90;;;;;;6239875;28;20233;-58
2022/10/05 14:24:56;;;;;;;4.80;4.40;;;23.10;50.10;;;;;;6248719;28;20239;-59
2022/10/05 14:28:02;;;;;;;6.10;4.60;;;23.10;50.20;;;;;;6228567;28;20639;-58
2022/10/05 14:31:13;;;;;;;4.60;4.23;;;23.10;50.20;;;;;;6214366;28;20237;-58
2022/10/05 14:34:26;;;;;;;7.40;4.37;;;23.10;50.40;;;;;;6201083;28;20263;-58
2022/10/05 14:37:46;;;;;;;9.43;5.03;;;23.00;50.40;;;;;;6200800;28;20240;-58
2022/10/05 14:41:17;;;;;;;5.33;4.83;;;22.90;51.10;;;;;;6200785;28;20245;-57
2022/10/05 14:44:30;;;;;;;5.50;3.60;;;22.80;51.20;;;;;;6200943;28;20241;-58
2022/10/05 14:47:47;;;;;;;4.63;4.23;;;22.50;51.70;;;;;;6201423;28;20234;-58
2022/10/05 14:50:56;;;;;;;4.17;3.87;;;22.40;52.00;;;;;;6218201;28;20221;-58
2022/10/05 14:54:01;;;;;;;4.10;3.80;;;22.20;52.20;;;;;;6249303;28;20518;-58
2022/10/05 14:57:10;;;;;;;4.40;4.10;;;22.20;52.60;;;;;;6248226;28;20290;-58
2022/10/05 15:00:15;;;;;;;5.27;4.27;;;22.10;52.90;;;;;;6249337;28;20232;-61
2022/10/05 15:03:35;;;;;;;4.23;3.83;;;22.10;53.40;;;;;;6248609;28;20231;-60
2022/10/05 15:06:46;;;;;;;4.63;4.13;;;22.00;53.70;;;;;;6240971;28;20197;-60
2022/10/05 15:10:15;;;;;;;4.73;4.10;;;22.00;54.30;;;;;;6250141;28;20228;-60
2022/10/05 15:13:21;;;;;;;9.63;4.57;;;21.90;54.80;;;;;;6248930;28;20263;-59
2022/10/05 15:16:30;;;;;;;10.00;4.47;;;21.80;55.40;;;;;;6248833;28;20301;-61
2022/10/05 15:19:44;;;;;;;6.80;4.20;;;21.70;56.20;;;;;;6254283;28;20239;-59
2022/10/05 15:22:58;;;;;;;4.20;3.80;;;21.60;56.50;;;;;;6230017;28;20261;-59
2022/10/05 15:26:15;;;;;;;5.33;4.70;;;21.60;57.10;;;;;;6224433;28;20885;-60
2022/10/05 15:29:41;;;;;;;4.80;4.20;;;21.50;57.50;;;;;;6205603;28;20222;-59
2022/10/05 15:33:04;;;;;;;7.73;5.40;;;21.50;58.10;;;;;;6251930;28;20228;-58
2022/10/05 15:36:13;;;;;;;7.47;4.93;;;21.40;58.50;;;;;;6251184;28;20228;-59
2022/10/05 15:39:27;;;;;;;8.30;4.93;;;21.40;59.40;;;;;;6253432;28;20709;-58
2022/10/05 15:42:35;;;;;;;8.83;4.27;;;21.30;60.20;;;;;;6251426;28;20213;-58
2022/10/05 15:45:43;;;;;;;5.13;3.97;;;21.30;61.20;;;;;;6253066;28;20255;-58
2022/10/05 15:48:54;;;;;;;6.60;4.90;;;21.20;61.90;;;;;;6252399;28;20232;-58
2022/10/05 15:52:06;;;;;;;7.40;5.87;;;21.10;62.90;;;;;;6252379;28;20228;-58
2022/10/05 15:55:38;;;;;;;5.00;4.43;;;21.00;63.70;;;;;;6253633;28;20294;-56
2022/10/05 15:58:52;;;;;;;4.83;4.33;;;20.90;64.30;;;;;;6253677;28;20236;-57
2022/10/05 16:02:00;;;;;;;8.20;6.37;;;20.80;64.40;;;;;;6253147;28;20240;-57
2022/10/05 16:08:49;;;;;;;5.20;4.70;;;20.80;67.70;;;;;;6253667;28;20232;-57
2022/10/05 16:08:56;;;;;;;7.40;6.07;;;20.70;68.60;;;;;;6253606;28;20666;-58
2022/10/05 16:12:13;;;;;;;9.40;7.20;;;20.60;70.20;;;;;;6253332;28;20248;-58
2022/10/05 16:15:25;;;;;;;9.73;7.20;;;20.50;72.70;;;;;;6253141;28;20302;-58
2022/10/05 16:18:49;;;;;;;8.63;6.77;;;20.30;74.80;;;;;;6251828;28;20267;-57
2022/10/05 16:22:03;;;;;;;7.47;6.73;;;20.10;77.60;;;;;;6244901;28;20224;-57
2022/10/05 16:25:11;;;;;;;10.07;6.53;;;20.00;80.50;;;;;;6252558;28;20537;-58
2022/10/05 16:28:28;;;;;;;8.70;7.30;;;19.80;83.40;;;;;;6248975;28;20235;-58
2022/10/05 16:31:37;;;;;;;8.00;7.30;;;19.70;86.30;;;;;;6247120;28;20224;-58
2022/10/05 16:34:57;;;;;;;7.17;6.57;;;19.60;89.30;;;;;;6252031;28;20231;-58
2022/10/05 16:38:12;;;;;;;7.90;7.10;;;19.50;90.70;;;;;;6249706;28;20225;-57
2022/10/05 16:41:21;;;;;;;8.40;7.27;;;19.40;91.80;;;;;;6252796;28;20251;-58
2022/10/05 16:44:34;;;;;;;7.90;7.20;;;19.40;92.80;;;;;;6252918;28;20239;-59
2022/10/05 16:47:46;;;;;;;9.40;8.70;;;19.30;93.60;;;;;;6252180;28;20251;-59
2022/10/05 16:51:06;;;;;;;10.10;9.10;;;19.20;94.40;;;;;;6252527;28;20744;-60
2022/10/05 16:54:18;;;;;;;11.50;10.40;;;19.10;95.20;;;;;;6203385;28;20229;-59
2022/10/05 16:57:24;;;;;;;10.90;9.80;;;19.00;96.00;;;;;;6250605;28;20681;-58
2022/10/05 17:00:36;;;;;;;12.93;10.60;;;18.90;96.50;;;;;;6251803;28;20236;-58